sensor_id;sensor_type;location;lat;lon;timestamp;pressure;altitude;pressure_sealevel;temperature;humidity
72892;BME280;61032;50.782;6.818;2022-11-25T00:00:32;100180.69;;;8.56;77.46
72892;BME280;61032;50.782;6.818;2022-11-25T00:01:33;100173.13;;;8.53;77.36
72892;BME280;61032;50.782;6.818;2022-11-25T00:02:33;100175.22;;;8.56;77.59
72892;BME280;61032;50.782;6.818;2022-11-25T00:03:34;100173.63;;;8.55;77.42
72892;BME280;61032;50.782;6.818;2022-11-25T00:04:35;100173.94;;;8.53;77.60
72892;BME280;61032;50.782;6.818;2022-11-25T00:05:37;100169.94;;;8.51;77.37
72892;BME280;61032;50.782;6.818;2022-11-25T00:06:37;100174.44;;;8.47;77.63
72892;BME280;61032;50.782;6.818;2022-11-25T00:07:38;100181.53;;;8.48;77.77
72892;BME280;61032;50.782;6.818;2022-11-25T00:08:39;100168.81;;;8.52;77.37
72892;BME280;61032;50.782;6.818;2022-11-25T00:09:40;100170.25;;;8.49;77.44
72892;BME280;61032;50.782;6.818;2022-11-25T00:10:40;100168.47;;;8.45;77.55
72892;BME280;61032;50.782;6.818;2022-11-25T00:11:41;100163.00;;;8.45;77.73
72892;BME280;61032;50.782;6.818;2022-11-25T00:12:42;100168.16;;;8.46;77.73
72892;BME280;61032;50.782;6.818;2022-11-25T00:13:44;100161.72;;;8.42;77.96
72892;BME280;61032;50.782;6.818;2022-11-25T00:14:45;100155.91;;;8.44;77.59
72892;BME280;61032;50.782;6.818;2022-11-25T00:15:45;100155.44;;;8.42;77.83
72892;BME280;61032;50.782;6.818;2022-11-25T00:16:45;100151.09;;;8.41;77.96
72892;BME280;61032;50.782;6.818;2022-11-25T00:17:46;100156.41;;;8.37;78.05
72892;BME280;61032;50.782;6.818;2022-11-25T00:18:48;100151.88;;;8.33;78.24
72892;BME280;61032;50.782;6.818;2022-11-25T00:19:49;100154.78;;;8.27;78.56
72892;BME280;61032;50.782;6.818;2022-11-25T00:20:50;100149.78;;;8.30;78.94
72892;BME280;61032;50.782;6.818;2022-11-25T00:21:50;100149.16;;;8.33;78.41
72892;BME280;61032;50.782;6.818;2022-11-25T00:22:50;100146.41;;;8.33;77.94
72892;BME280;61032;50.782;6.818;2022-11-25T00:23:52;100147.38;;;8.37;78.32
72892;BME280;61032;50.782;6.818;2022-11-25T00:24:53;100150.44;;;8.35;78.13
72892;BME280;61032;50.782;6.818;2022-11-25T00:25:54;100144.63;;;8.37;78.40
72892;BME280;61032;50.782;6.818;2022-11-25T00:26:54;100137.06;;;8.34;78.34
72892;BME280;61032;50.782;6.818;2022-11-25T00:27:54;100146.41;;;8.33;78.50
72892;BME280;61032;50.782;6.818;2022-11-25T00:28:57;100147.50;;;8.32;78.55
72892;BME280;61032;50.782;6.818;2022-11-25T00:29:58;100146.41;;;8.33;78.79
72892;BME280;61032;50.782;6.818;2022-11-25T00:31:06;100137.72;;;8.31;78.81
72892;BME280;61032;50.782;6.818;2022-11-25T00:32:07;100137.72;;;8.31;78.71
72892;BME280;61032;50.782;6.818;2022-11-25T00:33:08;100140.78;;;8.29;78.84
72892;BME280;61032;50.782;6.818;2022-11-25T00:34:11;100132.56;;;8.29;78.90
72892;BME280;61032;50.782;6.818;2022-11-25T00:35:12;100121.91;;;8.27;78.94
72892;BME280;61032;50.782;6.818;2022-11-25T00:36:19;100123.84;;;8.27;78.98
72892;BME280;61032;50.782;6.818;2022-11-25T00:37:20;100119.34;;;8.22;79.23
72892;BME280;61032;50.782;6.818;2022-11-25T00:38:20;100112.09;;;8.26;78.85
72892;BME280;61032;50.782;6.818;2022-11-25T00:39:20;100114.63;;;8.32;79.12
72892;BME280;61032;50.782;6.818;2022-11-25T00:40:23;100112.56;;;8.28;78.88
72892;BME280;61032;50.782;6.818;2022-11-25T00:41:24;100119.19;;;8.27;79.17
72892;BME280;61032;50.782;6.818;2022-11-25T00:42:43;100126.91;;;8.25;79.32
72892;BME280;61032;50.782;6.818;2022-11-25T00:44:02;100125.31;;;8.33;79.75
72892;BME280;61032;50.782;6.818;2022-11-25T00:45:21;100121.28;;;8.31;79.58
72892;BME280;61032;50.782;6.818;2022-11-25T00:46:22;100125.16;;;8.30;79.87
72892;BME280;61032;50.782;6.818;2022-11-25T00:47:22;100115.97;;;8.34;79.85
72892;BME280;61032;50.782;6.818;2022-11-25T00:48:23;100116.13;;;8.38;79.86
72892;BME280;61032;50.782;6.818;2022-11-25T00:49:23;100115.00;;;8.39;79.59
72892;BME280;61032;50.782;6.818;2022-11-25T00:50:23;100117.41;;;8.40;79.55
72892;BME280;61032;50.782;6.818;2022-11-25T00:51:24;100115.63;;;8.44;79.85
72892;BME280;61032;50.782;6.818;2022-11-25T00:52:25;100121.59;;;8.46;79.85
72892;BME280;61032;50.782;6.818;2022-11-25T00:53:25;100121.44;;;8.51;79.75
72892;BME280;61032;50.782;6.818;2022-11-25T00:54:26;100121.28;;;8.48;79.62
72892;BME280;61032;50.782;6.818;2022-11-25T00:55:26;100128.38;;;8.49;79.67
72892;BME280;61032;50.782;6.818;2022-11-25T00:56:46;100121.75;;;8.50;79.48
72892;BME280;61032;50.782;6.818;2022-11-25T00:57:47;100126.56;;;8.53;79.32
72892;BME280;61032;50.782;6.818;2022-11-25T00:58:47;100117.69;;;8.56;79.12
72892;BME280;61032;50.782;6.818;2022-11-25T00:59:47;100117.69;;;8.56;79.32
72892;BME280;61032;50.782;6.818;2022-11-25T01:00:48;100125.44;;;8.54;79.31
72892;BME280;61032;50.782;6.818;2022-11-25T01:01:48;100122.03;;;8.57;79.69
72892;BME280;61032;50.782;6.818;2022-11-25T01:02:48;100120.09;;;8.57;79.41
72892;BME280;61032;50.782;6.818;2022-11-25T01:03:50;100116.41;;;8.62;79.36
72892;BME280;61032;50.782;6.818;2022-11-25T01:04:50;100127.34;;;8.62;78.96
72892;BME280;61032;50.782;6.818;2022-11-25T01:05:51;100112.22;;;8.56;79.11
72892;BME280;61032;50.782;6.818;2022-11-25T01:06:51;100121.72;;;8.58;79.44
72892;BME280;61032;50.782;6.818;2022-11-25T01:07:53;100123.16;;;8.56;79.39
72892;BME280;61032;50.782;6.818;2022-11-25T01:08:53;100123.16;;;8.56;79.35
72892;BME280;61032;50.782;6.818;2022-11-25T01:09:54;100117.22;;;8.54;79.50
72892;BME280;61032;50.782;6.818;2022-11-25T01:10:58;100118.50;;;8.56;79.49
72892;BME280;61032;50.782;6.818;2022-11-25T01:11:59;100117.53;;;8.61;79.45
72892;BME280;61032;50.782;6.818;2022-11-25T01:12:59;100119.13;;;8.62;79.33
72892;BME280;61032;50.782;6.818;2022-11-25T01:14:00;100118.97;;;8.58;79.67
72892;BME280;61032;50.782;6.818;2022-11-25T01:15:00;100114.63;;;8.66;79.64
72892;BME280;61032;50.782;6.818;2022-11-25T01:16:02;100123.00;;;8.70;79.09
72892;BME280;61032;50.782;6.818;2022-11-25T01:17:02;100122.66;;;8.71;79.24
72892;BME280;61032;50.782;6.818;2022-11-25T01:18:03;100122.84;;;8.66;79.38
72892;BME280;61032;50.782;6.818;2022-11-25T01:19:03;100114.63;;;8.66;79.83
72892;BME280;61032;50.782;6.818;2022-11-25T01:20:04;100119.94;;;8.71;79.85
72892;BME280;61032;50.782;6.818;2022-11-25T01:21:13;100110.38;;;8.77;79.73
72892;BME280;61032;50.782;6.818;2022-11-25T01:22:14;100118.59;;;8.77;79.66
72892;BME280;61032;50.782;6.818;2022-11-25T01:23:14;100117.00;;;8.76;79.75
72892;BME280;61032;50.782;6.818;2022-11-25T01:24:15;100106.69;;;8.73;79.52
72892;BME280;61032;50.782;6.818;2022-11-25T01:25:15;100115.84;;;8.77;79.44
72892;BME280;61032;50.782;6.818;2022-11-25T01:26:20;100110.22;;;8.74;79.23
72892;BME280;61032;50.782;6.818;2022-11-25T01:27:21;100108.97;;;8.71;79.68
72892;BME280;61032;50.782;6.818;2022-11-25T01:28:21;100120.06;;;8.75;79.83
72892;BME280;61032;50.782;6.818;2022-11-25T01:29:21;100115.53;;;8.79;79.40
72892;BME280;61032;50.782;6.818;2022-11-25T01:30:22;100111.50;;;8.76;79.58
72892;BME280;61032;50.782;6.818;2022-11-25T01:31:23;100120.38;;;8.82;79.29
72892;BME280;61032;50.782;6.818;2022-11-25T01:32:24;100121.16;;;8.82;79.30
72892;BME280;61032;50.782;6.818;2022-11-25T01:33:24;100114.06;;;8.81;79.36
72892;BME280;61032;50.782;6.818;2022-11-25T01:34:26;100113.28;;;8.81;79.46
72892;BME280;61032;50.782;6.818;2022-11-25T01:35:27;100109.72;;;8.80;79.26
72892;BME280;61032;50.782;6.818;2022-11-25T01:36:28;100105.84;;;8.81;79.52
72892;BME280;61032;50.782;6.818;2022-11-25T01:37:28;100101.31;;;8.85;79.26
72892;BME280;61032;50.782;6.818;2022-11-25T01:38:29;100098.75;;;8.80;79.25
72892;BME280;61032;50.782;6.818;2022-11-25T01:39:29;100093.75;;;8.82;79.54
72892;BME280;61032;50.782;6.818;2022-11-25T01:40:29;100096.97;;;8.84;79.31
72892;BME280;61032;50.782;6.818;2022-11-25T01:41:31;100102.47;;;8.84;79.07
72892;BME280;61032;50.782;6.818;2022-11-25T01:42:32;100104.22;;;8.89;79.03
72892;BME280;61032;50.782;6.818;2022-11-25T01:43:33;100094.53;;;8.91;79.42
72892;BME280;61032;50.782;6.818;2022-11-25T01:44:34;100105.50;;;8.91;79.05
72892;BME280;61032;50.782;6.818;2022-11-25T01:45:36;100104.81;;;8.94;79.40
72892;BME280;61032;50.782;6.818;2022-11-25T01:48:13;100110.31;;;8.94;79.40
72892;BME280;61032;50.782;6.818;2022-11-25T01:50:03;100104.97;;;8.98;79.48
72892;BME280;61032;50.782;6.818;2022-11-25T01:50:46;100104.00;;;8.94;79.32
72892;BME280;61032;50.782;6.818;2022-11-25T01:51:53;100101.63;;;8.92;79.52
72892;BME280;61032;50.782;6.818;2022-11-25T01:52:55;100108.38;;;8.95;78.98
72892;BME280;61032;50.782;6.818;2022-11-25T01:54:01;100098.50;;;9.03;79.18
72892;BME280;61032;50.782;6.818;2022-11-25T01:55:15;100096.25;;;9.05;79.01
72892;BME280;61032;50.782;6.818;2022-11-25T01:56:18;100094.47;;;9.09;78.41
72892;BME280;61032;50.782;6.818;2022-11-25T01:57:26;100086.72;;;9.11;78.94
72892;BME280;61032;50.782;6.818;2022-11-25T01:58:30;100085.75;;;9.07;78.63
72892;BME280;61032;50.782;6.818;2022-11-25T01:59:36;100087.19;;;9.13;78.63
72892;BME280;61032;50.782;6.818;2022-11-25T02:00:38;100091.88;;;9.12;78.69
72892;BME280;61032;50.782;6.818;2022-11-25T02:01:38;100104.88;;;9.15;78.79
72892;BME280;61032;50.782;6.818;2022-11-25T02:02:39;100094.06;;;9.19;78.42
72892;BME280;61032;50.782;6.818;2022-11-25T02:03:42;100093.56;;;9.25;78.13
72892;BME280;61032;50.782;6.818;2022-11-25T02:04:44;100091.63;;;9.26;78.31
72892;BME280;61032;50.782;6.818;2022-11-25T02:05:53;100098.41;;;9.20;77.89
72892;BME280;61032;50.782;6.818;2022-11-25T02:06:59;100091.06;;;9.12;78.41
72892;BME280;61032;50.782;6.818;2022-11-25T02:08:03;100099.56;;;9.19;78.58
72892;BME280;61032;50.782;6.818;2022-11-25T02:09:06;100091.66;;;9.17;78.13
72892;BME280;61032;50.782;6.818;2022-11-25T02:10:11;100081.22;;;9.11;78.43
72892;BME280;61032;50.782;6.818;2022-11-25T02:11:14;100080.28;;;9.07;78.55
72892;BME280;61032;50.782;6.818;2022-11-25T02:12:16;100081.06;;;9.07;78.34
72892;BME280;61032;50.782;6.818;2022-11-25T02:13:17;100077.19;;;9.08;78.94
72892;BME280;61032;50.782;6.818;2022-11-25T02:14:19;100086.22;;;9.09;78.74
72892;BME280;61032;50.782;6.818;2022-11-25T02:15:21;100073.00;;;9.11;78.96
72892;BME280;61032;50.782;6.818;2022-11-25T02:16:22;100081.06;;;9.07;78.75
72892;BME280;61032;50.782;6.818;2022-11-25T02:17:23;100074.47;;;9.08;78.71
72892;BME280;61032;50.782;6.818;2022-11-25T02:18:25;100075.13;;;9.05;78.42
72892;BME280;61032;50.782;6.818;2022-11-25T02:19:38;100085.94;;;9.02;78.60
72892;BME280;61032;50.782;6.818;2022-11-25T02:20:41;100082.88;;;9.03;78.73
72892;BME280;61032;50.782;6.818;2022-11-25T02:21:46;100079.00;;;9.04;78.88
72892;BME280;61032;50.782;6.818;2022-11-25T02:24:04;100082.09;;;8.94;78.84
72892;BME280;61032;50.782;6.818;2022-11-25T02:25:30;100081.97;;;8.90;79.03
72892;BME280;61032;50.782;6.818;2022-11-25T02:26:31;100084.41;;;8.83;79.17
72892;BME280;61032;50.782;6.818;2022-11-25T02:27:32;100075.06;;;8.84;79.61
72892;BME280;61032;50.782;6.818;2022-11-25T02:28:33;100079.25;;;8.82;79.34
72892;BME280;61032;50.782;6.818;2022-11-25T02:29:34;100079.28;;;8.73;79.50
72892;BME280;61032;50.782;6.818;2022-11-25T02:30:35;100080.56;;;8.76;79.80
72892;BME280;61032;50.782;6.818;2022-11-25T02:31:36;100074.09;;;8.80;79.64
72892;BME280;61032;50.782;6.818;2022-11-25T02:32:42;100085.72;;;8.77;79.66
72892;BME280;61032;50.782;6.818;2022-11-25T02:33:42;100084.91;;;8.77;79.44
72892;BME280;61032;50.782;6.818;2022-11-25T02:34:46;100089.47;;;8.73;79.96
72892;BME280;61032;50.782;6.818;2022-11-25T02:36:02;100083.63;;;8.74;79.63
72892;BME280;61032;50.782;6.818;2022-11-25T02:37:04;100087.31;;;8.78;79.47
72892;BME280;61032;50.782;6.818;2022-11-25T02:38:11;100089.25;;;8.78;79.49
72892;BME280;61032;50.782;6.818;2022-11-25T02:39:13;100089.09;;;8.83;79.38
72892;BME280;61032;50.782;6.818;2022-11-25T02:40:14;100085.22;;;8.84;79.65
72892;BME280;61032;50.782;6.818;2022-11-25T02:42:20;100086.84;;;8.76;79.39
72892;BME280;61032;50.782;6.818;2022-11-25T02:43:21;100087.16;;;8.75;79.71
72892;BME280;61032;50.782;6.818;2022-11-25T02:44:22;100091.56;;;8.67;79.97
72892;BME280;61032;50.782;6.818;2022-11-25T02:45:31;100081.09;;;8.69;79.91
72892;BME280;61032;50.782;6.818;2022-11-25T02:46:32;100091.41;;;8.72;79.77
72892;BME280;61032;50.782;6.818;2022-11-25T02:47:32;100083.00;;;8.69;80.02
72892;BME280;61032;50.782;6.818;2022-11-25T02:48:34;100088.16;;;8.70;79.70
72892;BME280;61032;50.782;6.818;2022-11-25T02:49:35;100090.91;;;8.70;79.84
72892;BME280;61032;50.782;6.818;2022-11-25T02:50:36;100094.78;;;8.69;79.69
72892;BME280;61032;50.782;6.818;2022-11-25T02:51:38;100094.63;;;8.66;79.75
72892;BME280;61032;50.782;6.818;2022-11-25T02:52:39;100089.97;;;8.66;79.88
72892;BME280;61032;50.782;6.818;2022-11-25T02:53:40;100087.22;;;8.66;80.16
72892;BME280;61032;50.782;6.818;2022-11-25T02:54:40;100086.72;;;8.64;80.41
72892;BME280;61032;50.782;6.818;2022-11-25T02:55:40;100089.78;;;8.63;80.33
72892;BME280;61032;50.782;6.818;2022-11-25T02:56:41;100081.56;;;8.63;80.04
72892;BME280;61032;50.782;6.818;2022-11-25T02:57:42;100079.97;;;8.61;80.37
72892;BME280;61032;50.782;6.818;2022-11-25T02:58:42;100078.69;;;8.59;80.26
72892;BME280;61032;50.782;6.818;2022-11-25T02:59:43;100085.78;;;8.60;80.49
72892;BME280;61032;50.782;6.818;2022-11-25T03:00:45;100072.56;;;8.62;80.32
72892;BME280;61032;50.782;6.818;2022-11-25T03:01:45;100075.44;;;8.66;80.32
72892;BME280;61032;50.782;6.818;2022-11-25T03:02:46;100074.16;;;8.63;80.13
72892;BME280;61032;50.782;6.818;2022-11-25T03:03:47;100066.41;;;8.65;80.52
72892;BME280;61032;50.782;6.818;2022-11-25T03:04:47;100075.94;;;8.68;80.19
72892;BME280;61032;50.782;6.818;2022-11-25T03:05:48;100076.72;;;8.68;80.42
72892;BME280;61032;50.782;6.818;2022-11-25T03:06:48;100080.78;;;8.62;79.99
72892;BME280;61032;50.782;6.818;2022-11-25T03:07:49;100076.91;;;8.63;80.39
72892;BME280;61032;50.782;6.818;2022-11-25T03:08:49;100069.97;;;8.66;80.14
72892;BME280;61032;50.782;6.818;2022-11-25T03:09:49;100074.78;;;8.69;79.79
72892;BME280;61032;50.782;6.818;2022-11-25T03:10:50;100069.91;;;8.74;79.62
72892;BME280;61032;50.782;6.818;2022-11-25T03:11:51;100064.31;;;8.71;79.45
72892;BME280;61032;50.782;6.818;2022-11-25T03:13:10;100068.66;;;8.72;79.89
72892;BME280;61032;50.782;6.818;2022-11-25T03:14:10;100069.47;;;8.72;80.16
72892;BME280;61032;50.782;6.818;2022-11-25T03:15:10;100074.47;;;8.70;79.89
72892;BME280;61032;50.782;6.818;2022-11-25T03:16:11;100088.66;;;8.72;79.54
72892;BME280;61032;50.782;6.818;2022-11-25T03:17:12;100082.69;;;8.70;80.14
72892;BME280;61032;50.782;6.818;2022-11-25T03:18:12;100088.66;;;8.72;79.83
72892;BME280;61032;50.782;6.818;2022-11-25T03:19:12;100089.59;;;8.76;79.68
72892;BME280;61032;50.782;6.818;2022-11-25T03:20:13;100092.81;;;8.78;79.36
72892;BME280;61032;50.782;6.818;2022-11-25T03:21:14;100097.47;;;8.78;79.25
72892;BME280;61032;50.782;6.818;2022-11-25T03:22:15;100115.69;;;8.74;79.31
72892;BME280;61032;50.782;6.818;2022-11-25T03:23:15;100113.75;;;8.74;79.44
72892;BME280;61032;50.782;6.818;2022-11-25T03:24:16;100120.22;;;8.78;79.46
72892;BME280;61032;50.782;6.818;2022-11-25T03:25:16;100121.16;;;8.82;79.52
72892;BME280;61032;50.782;6.818;2022-11-25T03:26:17;100121.16;;;8.82;79.24
72892;BME280;61032;50.782;6.818;2022-11-25T03:27:17;100117.28;;;8.83;78.88
72892;BME280;61032;50.782;6.818;2022-11-25T03:28:17;100115.69;;;8.82;79.22
72892;BME280;61032;50.782;6.818;2022-11-25T03:29:18;100119.22;;;8.83;78.80
72892;BME280;61032;50.782;6.818;2022-11-25T03:30:21;100127.28;;;8.88;78.79
72892;BME280;61032;50.782;6.818;2022-11-25T03:31:22;100114.38;;;8.88;78.67
72892;BME280;61032;50.782;6.818;2022-11-25T03:32:22;100121.00;;;8.87;78.71
72892;BME280;61032;50.782;6.818;2022-11-25T03:33:22;100121.81;;;8.88;78.81
72892;BME280;61032;50.782;6.818;2022-11-25T03:34:23;100131.31;;;8.90;78.46
72892;BME280;61032;50.782;6.818;2022-11-25T03:35:23;100122.44;;;8.93;78.62
72892;BME280;61032;50.782;6.818;2022-11-25T03:36:23;100125.19;;;8.93;78.48
72892;BME280;61032;50.782;6.818;2022-11-25T03:37:24;100122.44;;;8.93;77.97
72892;BME280;61032;50.782;6.818;2022-11-25T03:38:24;100128.56;;;8.90;77.86
72892;BME280;61032;50.782;6.818;2022-11-25T03:39:24;100122.28;;;8.90;78.22
72892;BME280;61032;50.782;6.818;2022-11-25T03:40:25;100128.88;;;8.89;78.41
72892;BME280;61032;50.782;6.818;2022-11-25T03:41:25;100136.31;;;8.88;78.08
72892;BME280;61032;50.782;6.818;2022-11-25T03:42:25;100134.84;;;8.91;78.21
72892;BME280;61032;50.782;6.818;2022-11-25T03:43:26;100141.16;;;8.91;78.51
72892;BME280;61032;50.782;6.818;2022-11-25T03:44:26;100140.34;;;8.91;78.36
72892;BME280;61032;50.782;6.818;2022-11-25T03:45:26;100135.66;;;8.91;78.26
72892;BME280;61032;50.782;6.818;2022-11-25T03:46:27;100138.88;;;8.93;78.13
72892;BME280;61032;50.782;6.818;2022-11-25T03:47:27;100143.84;;;9.00;78.09
72892;BME280;61032;50.782;6.818;2022-11-25T03:48:27;100137.53;;;9.00;77.91
72892;BME280;61032;50.782;6.818;2022-11-25T03:49:28;100143.19;;;9.03;77.67
72892;BME280;61032;50.782;6.818;2022-11-25T03:50:28;100147.06;;;9.02;78.17
72892;BME280;61032;50.782;6.818;2022-11-25T03:51:29;100151.25;;;9.00;77.80
72892;BME280;61032;50.782;6.818;2022-11-25T03:52:29;100141.25;;;8.95;78.20
72892;BME280;61032;50.782;6.818;2022-11-25T03:53:30;100139.81;;;8.98;78.44
72892;BME280;61032;50.782;6.818;2022-11-25T03:54:30;100146.41;;;8.96;77.94
72892;BME280;61032;50.782;6.818;2022-11-25T03:55:30;100150.78;;;8.98;78.27
72892;BME280;61032;50.782;6.818;2022-11-25T03:56:31;100150.13;;;9.01;77.83
72892;BME280;61032;50.782;6.818;2022-11-25T03:57:32;100151.25;;;9.00;78.29
72892;BME280;61032;50.782;6.818;2022-11-25T03:58:32;100147.56;;;8.95;78.27
72892;BME280;61032;50.782;6.818;2022-11-25T03:59:33;100139.22;;;8.92;78.32
72892;BME280;61032;50.782;6.818;2022-11-25T04:00:33;100144.81;;;8.95;78.53
72892;BME280;61032;50.782;6.818;2022-11-25T04:01:34;100148.84;;;8.98;78.02
72892;BME280;61032;50.782;6.818;2022-11-25T04:02:35;100151.25;;;9.00;78.18
72892;BME280;61032;50.782;6.818;2022-11-25T04:03:35;100152.38;;;8.99;78.00
72892;BME280;61032;50.782;6.818;2022-11-25T04:04:36;100147.44;;;8.92;78.51
72892;BME280;61032;50.782;6.818;2022-11-25T04:05:36;100151.91;;;8.96;78.17
72892;BME280;61032;50.782;6.818;2022-11-25T04:06:37;100150.78;;;8.98;78.13
72892;BME280;61032;50.782;6.818;2022-11-25T04:07:40;100151.44;;;8.94;78.44
72892;BME280;61032;50.782;6.818;2022-11-25T04:08:41;100149.84;;;8.93;78.69
72892;BME280;61032;50.782;6.818;2022-11-25T04:09:41;100145.94;;;8.94;78.67
72892;BME280;61032;50.782;6.818;2022-11-25T04:10:43;100143.56;;;8.93;78.54
72892;BME280;61032;50.782;6.818;2022-11-25T04:11:43;100147.72;;;8.99;78.58
72892;BME280;61032;50.782;6.818;2022-11-25T04:13:10;100139.63;;;9.03;78.03
72892;BME280;61032;50.782;6.818;2022-11-25T04:14:10;100142.69;;;9.01;77.81
72892;BME280;61032;50.782;6.818;2022-11-25T04:15:11;100146.25;;;9.02;78.26
72892;BME280;61032;50.782;6.818;2022-11-25T04:16:23;100145.28;;;9.06;78.22
72892;BME280;61032;50.782;6.818;2022-11-25T04:17:24;100145.59;;;9.05;78.09
72892;BME280;61032;50.782;6.818;2022-11-25T04:18:24;100153.50;;;9.06;78.10
72892;BME280;61032;50.782;6.818;2022-11-25T04:19:24;100150.59;;;9.11;78.12
72892;BME280;61032;50.782;6.818;2022-11-25T04:20:25;100146.56;;;9.09;77.92
72892;BME280;61032;50.782;6.818;2022-11-25T04:21:25;100145.91;;;9.12;78.23
72892;BME280;61032;50.782;6.818;2022-11-25T04:22:25;100146.06;;;9.07;78.33
72892;BME280;61032;50.782;6.818;2022-11-25T04:23:26;100152.50;;;9.11;78.07
72892;BME280;61032;50.782;6.818;2022-11-25T04:24:26;100147.22;;;9.06;78.49
72892;BME280;61032;50.782;6.818;2022-11-25T04:25:26;100153.81;;;9.05;78.71
72892;BME280;61032;50.782;6.818;2022-11-25T04:26:27;100151.88;;;9.05;78.94
72892;BME280;61032;50.782;6.818;2022-11-25T04:27:27;100150.09;;;9.09;78.89
72892;BME280;61032;50.782;6.818;2022-11-25T04:28:28;100154.47;;;9.10;79.13
72892;BME280;61032;50.782;6.818;2022-11-25T04:29:28;100144.94;;;9.08;78.94
72892;BME280;61032;50.782;6.818;2022-11-25T04:30:29;100144.94;;;9.08;79.32
72892;BME280;61032;50.782;6.818;2022-11-25T04:31:29;100142.53;;;9.06;79.20
72892;BME280;61032;50.782;6.818;2022-11-25T04:32:30;100145.59;;;9.05;79.64
72892;BME280;61032;50.782;6.818;2022-11-25T04:33:30;100143.19;;;9.03;79.83
72892;BME280;61032;50.782;6.818;2022-11-25T04:34:31;100149.00;;;9.02;79.99
72892;BME280;61032;50.782;6.818;2022-11-25T04:35:31;100155.75;;;9.04;79.82
72892;BME280;61032;50.782;6.818;2022-11-25T04:36:32;100154.97;;;9.04;79.62
72892;BME280;61032;50.782;6.818;2022-11-25T04:37:32;100153.19;;;8.99;79.94
72892;BME280;61032;50.782;6.818;2022-11-25T04:38:32;100160.44;;;9.04;79.92
72892;BME280;61032;50.782;6.818;2022-11-25T04:39:32;100164.47;;;9.06;79.83
72892;BME280;61032;50.782;6.818;2022-11-25T04:40:33;100166.06;;;9.07;80.03
72892;BME280;61032;50.782;6.818;2022-11-25T04:41:33;100158.81;;;9.03;80.08
72892;BME280;61032;50.782;6.818;2022-11-25T04:42:33;100162.69;;;9.02;80.03
72892;BME280;61032;50.782;6.818;2022-11-25T04:43:35;100159.78;;;9.07;80.31
72892;BME280;61032;50.782;6.818;2022-11-25T04:44:35;100161.88;;;9.10;79.63
72892;BME280;61032;50.782;6.818;2022-11-25T04:45:36;100162.84;;;9.14;79.88
72892;BME280;61032;50.782;6.818;2022-11-25T04:46:39;100158.59;;;9.16;79.75
72892;BME280;61032;50.782;6.818;2022-11-25T04:47:41;100162.03;;;9.13;79.78
72892;BME280;61032;50.782;6.818;2022-11-25T04:48:41;100159.63;;;9.12;80.06
72892;BME280;61032;50.782;6.818;2022-11-25T04:49:42;100164.78;;;9.13;79.99
72892;BME280;61032;50.782;6.818;2022-11-25T04:50:42;100164.41;;;9.15;80.09
72892;BME280;61032;50.782;6.818;2022-11-25T04:51:43;100162.47;;;9.15;79.59
72892;BME280;61032;50.782;6.818;2022-11-25T04:52:43;100168.78;;;9.16;79.85
72892;BME280;61032;50.782;6.818;2022-11-25T04:53:44;100164.25;;;9.20;79.74
72892;BME280;61032;50.782;6.818;2022-11-25T04:54:44;100166.81;;;9.16;79.83
72892;BME280;61032;50.782;6.818;2022-11-25T04:55:45;100158.94;;;9.15;79.94
72892;BME280;61032;50.782;6.818;2022-11-25T04:56:45;100169.25;;;9.18;80.15
72892;BME280;61032;50.782;6.818;2022-11-25T04:57:45;100163.28;;;9.16;80.50
72892;BME280;61032;50.782;6.818;2022-11-25T04:58:46;100161.03;;;9.18;80.16
72892;BME280;61032;50.782;6.818;2022-11-25T05:00:06;100162.63;;;9.19;80.70
72892;BME280;61032;50.782;6.818;2022-11-25T05:01:07;100164.41;;;9.15;80.66
72892;BME280;61032;50.782;6.818;2022-11-25T05:02:18;100164.91;;;9.17;80.43
72892;BME280;61032;50.782;6.818;2022-11-25T05:03:19;100168.66;;;9.12;80.33
72892;BME280;61032;50.782;6.818;2022-11-25T05:04:19;100170.69;;;9.15;80.53
72892;BME280;61032;50.782;6.818;2022-11-25T05:05:19;100166.81;;;9.16;80.25
72892;BME280;61032;50.782;6.818;2022-11-25T05:06:20;100176.34;;;9.19;80.08
72892;BME280;61032;50.782;6.818;2022-11-25T05:07:21;100171.06;;;9.14;80.08
72892;BME280;61032;50.782;6.818;2022-11-25T05:08:22;100174.41;;;9.19;80.51
72892;BME280;61032;50.782;6.818;2022-11-25T05:09:23;100171.19;;;9.17;80.03
72892;BME280;61032;50.782;6.818;2022-11-25T05:10:23;100171.19;;;9.17;80.56
72892;BME280;61032;50.782;6.818;2022-11-25T05:11:23;100167.63;;;9.17;80.55
72892;BME280;61032;50.782;6.818;2022-11-25T05:12:27;100165.53;;;9.22;80.83
72892;BME280;61032;50.782;6.818;2022-11-25T05:13:28;100168.25;;;9.22;80.42
72892;BME280;61032;50.782;6.818;2022-11-25T05:14:29;100175.50;;;9.27;80.78
72892;BME280;61032;50.782;6.818;2022-11-25T05:15:31;100177.78;;;9.25;80.39
72892;BME280;61032;50.782;6.818;2022-11-25T05:16:31;100178.59;;;9.25;80.02
72892;BME280;61032;50.782;6.818;2022-11-25T05:17:31;100176.97;;;9.24;80.08
72892;BME280;61032;50.782;6.818;2022-11-25T05:18:32;100176.31;;;9.27;80.11
72892;BME280;61032;50.782;6.818;2022-11-25T05:19:32;100184.38;;;9.33;79.95
72892;BME280;61032;50.782;6.818;2022-11-25T05:20:35;100177.75;;;9.34;79.91
72892;BME280;61032;50.782;6.818;2022-11-25T05:21:35;100179.22;;;9.31;79.57
72892;BME280;61032;50.782;6.818;2022-11-25T05:22:36;100179.53;;;9.29;79.84
72892;BME280;61032;50.782;6.818;2022-11-25T05:23:36;100175.19;;;9.28;80.41
72892;BME280;61032;50.782;6.818;2022-11-25T05:24:36;100183.91;;;9.22;80.43
72892;BME280;61032;50.782;6.818;2022-11-25T05:25:37;100184.22;;;9.29;80.04
72892;BME280;61032;50.782;6.818;2022-11-25T05:26:37;100180.81;;;9.32;80.13
72892;BME280;61032;50.782;6.818;2022-11-25T05:27:37;100185.03;;;9.29;79.65
72892;BME280;61032;50.782;6.818;2022-11-25T05:28:38;100192.44;;;9.29;80.28
72892;BME280;61032;50.782;6.818;2022-11-25T05:29:38;100184.53;;;9.27;80.17
72892;BME280;61032;50.782;6.818;2022-11-25T05:30:38;100183.44;;;9.20;80.38
72892;BME280;61032;50.782;6.818;2022-11-25T05:31:39;100188.28;;;9.23;80.45